METAR Data
IDs: Format: Raw Decoded Include TAF

Data at: 1727 UTC 16 Oct 2021

KAWG 161715Z AUTO 30014G22KT 10SM CLR 14/03 A3015 RMK AO2